KTXK/TXK METAR and TAF weather

Enter ICAO airport designator
Station Type Date Time Source
KTXK METAR 2021/02/28 02:53 UTC NOAA

KTXK 280253Z 08006KT 1/2SM FG VV002 16/14 A2988 RMK AO2 SLP117 T01560144 56000


Station Type Date Time Source
KTXK Decoded METAR 2021/02/28 02:53 UTC NOAA

TEXARKANA RGNL WEBB FIELD, AR, United States (KTXK) 33-27N 093-59W 111M
Feb 27, 2021 - 09:53 PM EST / 2021.02.28 0253 UTC
Wind: from the E (080 degrees) at 7 MPH (6 KT):0
Visibility: 1/2 mile(s):0
Sky conditions: obscured
Weather: fog
Temperature: 60.1 F (15.6 C)
Dew Point: 57.9 F (14.4 C)
Relative Humidity: 92%
Pressure (altimeter): 29.88 in. Hg (1011 hPa)
Pressure tendency: 0.00 inches (0.0 hPa) lower than three hours ago
ob: KTXK 280253Z 08006KT 1/2SM FG VV002 16/14 A2988 RMK AO2 SLP117 T01560144 56000
cycle: 3

Station Type Date Time Source
KTXK TAF 2021/02/28 02:21 UTC NOAA

TAF
AMD KTXK 280218Z 2802/2824 07006KT 1/4SM FG VV002 WS020/18030KT
FM280600 18009KT 4SM BR OVC010
FM281700 20010G15KT P6SM VCSH OVC015
FM282100 21009KT P6SM OVC025

Example: see airport list